Time;durP1;ratioP1;P1;durP2;ratioP2;P2;SDS_P1;SDS_P2;PMS_P1;PMS_P2;Temp;Humidity;BMP_temperature;BMP_pressure;BME280_temperature;BME280_humidity;BME280_pressure;Samples;Min_cycle;Max_cycle;Signal;HPM_P1;HPM_P2
2022/05/16 00:02:10;;;;;;;6.45;1.52;;;21.10;99.90;;;;;;4215926;28;20198;-95
2022/05/16 00:04:16;;;;;;;3.88;1.60;;;21.20;99.90;;;;;;4199531;28;20170;-94
2022/05/16 00:06:25;;;;;;;6.45;1.70;;;21.20;99.90;;;;;;4215407;28;20202;-96
2022/05/16 00:08:27;;;;;;;7.40;1.50;;;21.20;99.90;;;;;;4199909;28;20156;-96
2022/05/16 00:10:36;;;;;;;5.07;1.40;;;21.20;99.90;;;;;;4199290;28;20186;-96
2022/05/16 00:12:38;;;;;;;4.43;1.38;;;21.20;99.90;;;;;;4198643;28;20213;-95
2022/05/16 00:14:55;;;;;;;3.67;1.20;;;21.20;99.90;;;;;;4215724;28;20206;-95
2022/05/16 00:16:59;;;;;;;3.88;1.50;;;21.10;99.90;;;;;;4215236;28;20171;-96
2022/05/16 00:19:20;;;;;;;3.45;1.48;;;21.10;99.90;;;;;;4215020;28;20213;-94
2022/05/16 00:21:45;;;;;;;3.67;1.70;;;21.10;99.90;;;;;;4216530;28;20198;-96
2022/05/16 00:24:09;;;;;;;18.00;1.70;;;21.00;99.90;;;;;;4214466;28;20178;-94
2022/05/16 00:26:29;;;;;;;2.80;1.48;;;21.10;99.90;;;;;;4198952;28;20164;-94
2022/05/16 00:28:49;;;;;;;6.93;1.67;;;21.10;99.90;;;;;;4215174;28;20182;-95
2022/05/16 00:30:54;;;;;;;3.55;1.55;;;21.20;99.90;;;;;;4217081;28;20547;-94
2022/05/16 00:33:50;;;;;;;4.80;2.08;;;21.20;99.90;;;;;;4216045;28;20542;-95
2022/05/16 00:36:12;;;;;;;5.05;1.50;;;21.10;99.90;;;;;;4214797;28;20677;-95
2022/05/16 00:38:12;;;;;;;4.18;1.80;;;21.20;99.90;;;;;;4198478;28;20714;-95
2022/05/16 00:40:21;;;;;;;4.10;1.40;;;21.10;99.90;;;;;;4214554;28;20643;-95
2022/05/16 00:42:23;;;;;;;4.50;1.90;;;21.20;99.90;;;;;;4198409;28;20219;-94
2022/05/16 00:44:33;;;;;;;4.22;1.60;;;21.10;99.90;;;;;;4213869;28;20181;-96
2022/05/16 00:46:39;;;;;;;6.88;1.52;;;21.10;99.90;;;;;;4215107;28;20155;-95
2022/05/16 00:49:03;;;;;;;6.45;1.90;;;21.10;99.90;;;;;;4211919;28;20601;-96
2022/05/16 00:51:10;;;;;;;5.07;1.55;;;21.10;99.90;;;;;;4198631;28;20178;-96
2022/05/16 00:53:11;;;;;;;4.32;1.58;;;21.00;99.90;;;;;;4197747;28;20144;-96
2022/05/16 00:55:25;;;;;;;7.30;1.95;;;21.10;99.90;;;;;;4196441;28;20156;-94
2022/05/16 00:57:34;;;;;;;3.92;1.77;;;21.00;99.90;;;;;;4214200;28;20175;-96
2022/05/16 01:00:05;;;;;;;5.38;1.77;;;20.90;99.90;;;;;;4215431;28;20280;-95
2022/05/16 01:05:29;;;;;;;5.68;1.98;;;20.70;99.90;;;;;;4212935;28;20163;-94
2022/05/16 01:07:33;;;;;;;5.00;1.67;;;20.70;99.90;;;;;;4240499;22;20198;-94
2022/05/16 01:09:54;;;;;;;7.97;2.40;;;20.60;99.90;;;;;;4230878;28;20332;-95
2022/05/16 01:11:55;;;;;;;5.85;1.75;;;20.60;99.90;;;;;;4215418;28;20254;-96
2022/05/16 01:13:56;;;;;;;9.45;2.45;;;20.60;99.90;;;;;;4230034;28;20158;-96
2022/05/16 01:16:03;;;;;;;3.92;1.80;;;20.50;99.90;;;;;;4211639;28;20158;-94
2022/05/16 01:18:06;;;;;;;6.57;1.95;;;20.30;99.90;;;;;;4213218;28;20194;-93
2022/05/16 01:20:14;;;;;;;8.75;2.20;;;20.20;99.90;;;;;;4211493;28;20267;-95
2022/05/16 01:22:31;;;;;;;3.95;1.92;;;20.10;99.90;;;;;;4229902;28;20202;-96
2022/05/16 01:24:39;;;;;;;5.25;2.42;;;20.20;99.90;;;;;;4211868;28;20163;-95
2022/05/16 01:26:43;;;;;;;5.28;2.38;;;20.10;99.90;;;;;;4226309;28;20174;-95
2022/05/16 01:28:48;;;;;;;7.70;2.33;;;20.10;99.90;;;;;;4213819;28;20167;-95
2022/05/16 01:30:54;;;;;;;6.30;2.45;;;20.20;99.90;;;;;;4228121;28;20171;-96
2022/05/16 01:32:57;;;;;;;5.80;2.40;;;20.10;99.90;;;;;;4212178;28;20169;-95
2022/05/16 01:35:00;;;;;;;3.88;1.90;;;20.00;99.90;;;;;;4227875;28;20181;-96
2022/05/16 01:37:01;;;;;;;8.52;2.35;;;20.10;99.90;;;;;;4211588;28;20671;-96
2022/05/16 01:39:05;;;;;;;5.90;2.17;;;20.00;99.90;;;;;;4228273;28;20167;-95
2022/05/16 01:41:15;;;;;;;5.30;2.20;;;20.10;99.90;;;;;;4212214;28;20170;-94
2022/05/16 01:43:17;;;;;;;10.15;2.25;;;20.00;99.90;;;;;;4227675;28;20197;-95
2022/05/16 01:45:19;;;;;;;7.50;1.90;;;20.00;99.90;;;;;;4213764;28;20159;-96
2022/05/16 01:47:23;;;;;;;4.10;2.00;;;20.00;99.90;;;;;;4214463;28;20246;-95
2022/05/16 01:49:24;;;;;;;8.45;2.35;;;20.00;99.90;;;;;;4213256;28;20183;-95
2022/05/16 01:51:40;;;;;;;7.90;2.08;;;20.00;99.90;;;;;;4228410;28;20160;-95
2022/05/16 01:53:43;;;;;;;7.70;1.92;;;19.90;99.90;;;;;;4213769;28;20190;-94
2022/05/16 01:55:46;;;;;;;3.13;1.75;;;19.90;99.90;;;;;;4230707;28;20178;-93
2022/05/16 01:57:53;;;;;;;4.97;2.08;;;20.00;99.90;;;;;;4213298;28;20163;-96
2022/05/16 01:59:53;;;;;;;6.55;1.85;;;20.00;99.90;;;;;;4210222;28;20194;-94
2022/05/16 02:01:58;;;;;;;5.85;1.60;;;19.80;99.90;;;;;;4227759;28;20186;-94
2022/05/16 02:04:00;;;;;;;8.35;1.60;;;19.70;99.90;;;;;;4228232;28;20220;-96
2022/05/16 02:06:01;;;;;;;7.10;1.92;;;19.60;99.90;;;;;;4229637;28;20166;-96
2022/05/16 02:08:02;;;;;;;10.85;1.80;;;19.70;99.90;;;;;;4211300;28;20190;-96
2022/05/16 02:10:11;;;;;;;7.05;1.52;;;19.70;99.90;;;;;;4213248;28;20250;-96
2022/05/16 02:12:12;;;;;;;4.32;1.80;;;19.80;99.90;;;;;;4197201;28;20568;-96
2022/05/16 02:14:14;;;;;;;9.00;2.03;;;19.80;99.90;;;;;;4210344;28;20181;-95
2022/05/16 02:16:34;;;;;;;6.10;1.60;;;19.80;99.90;;;;;;4227877;28;20214;-94
2022/05/16 02:18:37;;;;;;;4.65;1.60;;;19.80;99.90;;;;;;4227700;28;20184;-96
2022/05/16 02:20:39;;;;;;;9.02;1.90;;;19.90;99.90;;;;;;4230469;28;20178;-95
2022/05/16 02:25:03;;;;;;;10.98;2.08;;;20.10;99.90;;;;;;4230811;28;20166;-96
2022/05/16 02:27:09;;;;;;;4.90;1.60;;;20.20;99.90;;;;;;4229870;28;20170;-95
2022/05/16 02:29:10;;;;;;;9.30;1.90;;;20.40;99.90;;;;;;4230717;28;20167;-95
2022/05/16 02:31:20;;;;;;;3.70;1.88;;;20.30;99.90;;;;;;4212997;28;20179;-93
2022/05/16 02:33:26;;;;;;;7.60;1.95;;;20.40;99.90;;;;;;4229543;28;20177;-95
2022/05/16 02:35:34;;;;;;;7.20;1.67;;;20.50;99.90;;;;;;4215020;28;20173;-96
2022/05/16 02:37:41;;;;;;;6.07;1.88;;;20.40;99.90;;;;;;4230375;28;20256;-94
2022/05/16 02:39:48;;;;;;;5.88;1.73;;;20.50;99.90;;;;;;4243749;22;20223;-93
2022/05/16 02:41:49;;;;;;;6.38;2.22;;;20.70;99.90;;;;;;4193854;28;20226;-93
2022/05/16 02:43:50;;;;;;;4.97;1.65;;;20.70;99.90;;;;;;4190424;28;20163;-94
2022/05/16 02:45:50;;;;;;;4.93;1.60;;;20.50;99.90;;;;;;4173702;28;20164;-93
2022/05/16 02:47:51;;;;;;;6.70;2.08;;;20.40;99.90;;;;;;4171056;28;20172;-96
2022/05/16 02:49:52;;;;;;;4.78;1.85;;;20.40;99.90;;;;;;4173642;28;20275;-93
2022/05/16 02:51:53;;;;;;;5.70;1.98;;;20.40;99.90;;;;;;4174028;28;20167;-93
2022/05/16 02:53:54;;;;;;;5.85;1.67;;;20.40;99.90;;;;;;4192833;28;20656;-95
2022/05/16 02:55:55;;;;;;;2.58;1.58;;;20.40;99.90;;;;;;4175401;28;20177;-94
2022/05/16 02:57:56;;;;;;;7.05;1.70;;;20.40;99.90;;;;;;4175732;28;20177;-95
2022/05/16 02:59:58;;;;;;;3.15;1.60;;;20.30;99.90;;;;;;4177060;28;20172;-96
2022/05/16 03:02:04;;;;;;;7.03;1.50;;;20.20;99.90;;;;;;4211012;28;20255;-96
2022/05/16 03:04:08;;;;;;;7.93;1.90;;;20.30;99.90;;;;;;4160030;28;20181;-96
2022/05/16 03:06:10;;;;;;;5.95;1.58;;;20.30;99.90;;;;;;4191144;28;20191;-96
2022/05/16 03:08:10;;;;;;;5.18;1.40;;;20.30;99.90;;;;;;4172687;28;20165;-96
2022/05/16 03:10:15;;;;;;;6.43;1.70;;;20.30;99.90;;;;;;4177082;28;20242;-93
2022/05/16 03:12:16;;;;;;;5.38;1.58;;;20.40;99.90;;;;;;4176554;28;20240;-94
2022/05/16 03:14:21;;;;;;;4.40;1.40;;;20.40;99.90;;;;;;4143201;28;20193;-93
2022/05/16 03:16:22;;;;;;;6.75;1.25;;;20.80;99.90;;;;;;4188322;28;20159;-95
2022/05/16 03:18:25;;;;;;;6.05;1.70;;;21.40;99.90;;;;;;4212096;28;20179;-94
2022/05/16 03:20:27;;;;;;;4.22;1.40;;;21.20;99.90;;;;;;4176515;28;20185;-96
2022/05/16 03:22:28;;;;;;;2.72;1.33;;;21.20;99.90;;;;;;4194028;28;20278;-96
2022/05/16 03:24:29;;;;;;;3.75;1.50;;;21.00;99.90;;;;;;4195501;28;20186;-96
2022/05/16 03:26:37;;;;;;;4.80;1.88;;;20.80;99.90;;;;;;4178774;28;20184;-96
2022/05/16 03:28:38;;;;;;;4.78;1.60;;;20.70;99.90;;;;;;4194292;28;20167;-92
2022/05/16 03:30:40;;;;;;;6.15;1.60;;;20.50;99.90;;;;;;4194395;28;20248;-92
2022/05/16 03:32:40;;;;;;;5.95;1.58;;;20.40;99.90;;;;;;4211519;28;20187;-94
2022/05/16 03:34:41;;;;;;;4.95;1.30;;;20.30;99.90;;;;;;4193133;28;20171;-94
2022/05/16 03:36:43;;;;;;;5.57;1.50;;;20.30;99.90;;;;;;4177083;28;20169;-95
2022/05/16 03:41:04;;;;;;;3.47;1.35;;;20.30;99.90;;;;;;4199974;28;20191;-94
2022/05/16 03:43:09;;;;;;;4.38;1.50;;;20.30;99.90;;;;;;4214478;28;20305;-95
2022/05/16 03:45:10;;;;;;;5.50;1.30;;;20.30;99.90;;;;;;4198147;28;20167;-96
2022/05/16 03:47:26;;;;;;;6.65;1.40;;;20.30;99.90;;;;;;4198581;28;20284;-94
2022/05/16 03:49:29;;;;;;;5.72;1.45;;;20.40;99.90;;;;;;4197835;28;20729;-95
2022/05/16 03:51:40;;;;;;;4.53;1.60;;;20.50;99.90;;;;;;4198767;28;20163;-95
2022/05/16 03:53:47;;;;;;;5.10;1.60;;;20.60;99.90;;;;;;4198174;28;20167;-93
2022/05/16 03:55:48;;;;;;;7.78;1.60;;;20.50;99.90;;;;;;4180889;28;20267;-96
2022/05/16 03:57:50;;;;;;;4.97;1.58;;;20.50;99.90;;;;;;4194809;28;20171;-94
2022/05/16 03:59:51;;;;;;;2.78;1.55;;;20.40;99.90;;;;;;4178705;28;20260;-96
2022/05/16 04:01:55;;;;;;;3.97;1.42;;;20.50;99.90;;;;;;4181064;28;20216;-94
2022/05/16 04:03:56;;;;;;;5.07;1.58;;;20.50;99.90;;;;;;4207730;28;20187;-96
2022/05/16 04:05:58;;;;;;;4.97;1.45;;;20.30;99.90;;;;;;4189252;28;20194;-95
2022/05/16 04:07:59;;;;;;;4.00;1.55;;;20.20;99.90;;;;;;4191099;28;20202;-95
2022/05/16 04:10:00;;;;;;;3.40;1.60;;;20.10;99.90;;;;;;4204464;28;20756;-95
2022/05/16 04:12:01;;;;;;;6.35;1.60;;;20.00;99.90;;;;;;4186954;28;20179;-95
2022/05/16 04:14:02;;;;;;;5.68;1.73;;;20.00;99.90;;;;;;4189657;28;20167;-95
2022/05/16 04:16:04;;;;;;;6.60;1.90;;;20.00;99.90;;;;;;4173652;28;20564;-92
2022/05/16 04:18:05;;;;;;;6.35;1.55;;;20.10;99.90;;;;;;4193793;28;20262;-96
2022/05/16 04:20:10;;;;;;;2.67;1.38;;;20.10;99.90;;;;;;4174899;28;20200;-95
2022/05/16 04:22:10;;;;;;;5.85;1.65;;;20.20;99.90;;;;;;4161750;28;20295;-95
2022/05/16 04:24:11;;;;;;;3.67;1.40;;;20.20;99.90;;;;;;4176942;28;20176;-94
2022/05/16 04:26:12;;;;;;;7.93;1.98;;;20.30;99.90;;;;;;4176670;28;20174;-96
2022/05/16 04:28:13;;;;;;;6.78;1.75;;;20.30;99.90;;;;;;4193362;28;20175;-96
2022/05/16 04:30:14;;;;;;;5.25;1.42;;;20.30;99.90;;;;;;4189536;28;20195;-94
2022/05/16 04:32:15;;;;;;;3.63;1.63;;;20.20;99.90;;;;;;4184598;28;20175;-94
2022/05/16 04:34:16;;;;;;;9.18;1.38;;;20.00;99.90;;;;;;4170486;28;20239;-95
2022/05/16 04:36:16;;;;;;;5.20;1.70;;;20.00;99.90;;;;;;4169815;28;20204;-95
2022/05/16 04:38:17;;;;;;;4.82;1.50;;;19.90;99.90;;;;;;4169387;28;20588;-95
2022/05/16 04:40:19;;;;;;;4.63;1.48;;;19.80;99.90;;;;;;4185278;28;20207;-93
2022/05/16 04:42:53;;;;;;;3.63;1.60;;;19.70;99.90;;;;;;4184138;28;20312;-94
2022/05/16 04:44:47;;;;;;;12.88;2.00;;;19.70;99.90;;;;;;4181129;28;20695;-94
2022/05/16 04:46:48;;;;;;;4.00;1.63;;;19.70;99.90;;;;;;4167868;28;20172;-93
2022/05/16 04:48:49;;;;;;;5.25;1.60;;;19.70;99.90;;;;;;4166515;28;20242;-95
2022/05/16 04:50:50;;;;;;;7.05;1.80;;;19.50;99.90;;;;;;4166458;28;20168;-95
2022/05/16 04:52:51;;;;;;;4.90;1.70;;;19.50;99.90;;;;;;4199290;28;20213;-95
2022/05/16 04:54:52;;;;;;;6.35;1.60;;;19.40;99.90;;;;;;4183107;28;20160;-95
2022/05/16 04:56:54;;;;;;;4.07;1.50;;;19.30;99.90;;;;;;4183540;28;20557;-95
2022/05/16 04:58:55;;;;;;;5.90;1.40;;;19.20;99.90;;;;;;4165633;28;20203;-93
2022/05/16 05:00:55;;;;;;;8.52;1.70;;;19.20;99.90;;;;;;4166887;28;20176;-94
2022/05/16 05:02:59;;;;;;;3.95;1.42;;;19.10;99.90;;;;;;4184671;28;20313;-94
2022/05/16 05:05:00;;;;;;;5.65;1.50;;;19.20;99.90;;;;;;4168485;28;20180;-95
2022/05/16 05:07:03;;;;;;;2.97;1.40;;;19.20;99.90;;;;;;4167308;28;20188;-92
2022/05/16 05:09:04;;;;;;;5.63;1.42;;;19.20;99.90;;;;;;4183458;28;20168;-96
2022/05/16 05:15:44;;;;;;;12.68;1.88;;;19.60;99.90;;;;;;4185740;28;20183;-94
2022/05/16 05:17:44;;;;;;;7.75;1.77;;;19.60;99.90;;;;;;4185060;28;20175;-96
2022/05/16 05:19:45;;;;;;;5.20;1.58;;;19.80;99.90;;;;;;4186946;28;20664;-96
2022/05/16 05:21:46;;;;;;;6.45;1.83;;;19.70;99.90;;;;;;4170402;28;20699;-95
2022/05/16 05:23:47;;;;;;;3.45;1.58;;;19.80;99.90;;;;;;4169775;28;20179;-96
2022/05/16 05:25:48;;;;;;;4.82;1.70;;;19.90;99.90;;;;;;4168801;28;20588;-94
2022/05/16 05:27:49;;;;;;;5.13;1.92;;;19.80;99.90;;;;;;4186471;28;20175;-93
2022/05/16 05:29:52;;;;;;;5.18;1.70;;;19.80;99.90;;;;;;4153015;28;20211;-96
2022/05/16 05:31:53;;;;;;;6.13;1.90;;;19.70;99.90;;;;;;4168694;28;20176;-95
2022/05/16 05:33:55;;;;;;;9.35;2.30;;;19.70;99.90;;;;;;4169056;28;20207;-95
2022/05/16 05:35:56;;;;;;;8.13;2.20;;;19.70;99.90;;;;;;4169558;28;20165;-94
2022/05/16 05:37:57;;;;;;;8.43;2.63;;;19.80;99.90;;;;;;4167074;28;20186;-95
2022/05/16 05:40:00;;;;;;;5.90;1.80;;;19.80;99.90;;;;;;4184310;28;20235;-93
2022/05/16 05:42:01;;;;;;;7.72;2.35;;;19.90;99.90;;;;;;4167033;28;20215;-95
2022/05/16 05:44:02;;;;;;;14.05;2.30;;;19.90;99.90;;;;;;4166888;28;20168;-94
2022/05/16 05:46:04;;;;;;;9.00;2.05;;;20.00;99.90;;;;;;4184446;28;20187;-96
2022/05/16 05:48:05;;;;;;;9.93;1.90;;;20.10;99.90;;;;;;4183054;28;20156;-95
2022/05/16 05:50:07;;;;;;;8.55;2.05;;;20.10;99.90;;;;;;4168554;28;20192;-96
2022/05/16 05:52:08;;;;;;;5.88;1.77;;;20.20;99.90;;;;;;4184151;28;20171;-96
2022/05/16 05:54:09;;;;;;;6.75;1.70;;;20.30;99.90;;;;;;4183051;28;20180;-95
2022/05/16 05:56:12;;;;;;;5.80;2.13;;;20.50;99.90;;;;;;4168411;28;20701;-96
2022/05/16 05:58:33;;;;;;;5.95;1.98;;;20.60;99.90;;;;;;4186220;28;20175;-96
2022/05/16 06:00:33;;;;;;;6.95;2.42;;;20.70;99.90;;;;;;4166623;28;20687;-94
2022/05/16 06:02:34;;;;;;;8.55;2.03;;;20.90;99.90;;;;;;4166292;28;20216;-94
2022/05/16 06:04:36;;;;;;;4.13;1.77;;;21.00;99.90;;;;;;4167564;28;20173;-93
2022/05/16 06:06:36;;;;;;;4.68;1.85;;;21.20;99.90;;;;;;4187604;28;20187;-96
2022/05/16 06:08:37;;;;;;;7.45;1.70;;;21.20;99.90;;;;;;4191061;28;20171;-95
2022/05/16 06:10:38;;;;;;;7.70;1.90;;;21.30;99.90;;;;;;4169221;28;20196;-93
2022/05/16 06:12:40;;;;;;;7.07;1.98;;;21.40;99.90;;;;;;4168971;28;20168;-95
2022/05/16 06:14:43;;;;;;;6.32;1.38;;;21.40;99.90;;;;;;4185242;28;20710;-95
2022/05/16 06:16:44;;;;;;;3.17;1.27;;;21.40;99.90;;;;;;4168547;28;20225;-95
2022/05/16 06:18:45;;;;;;;9.77;1.58;;;21.50;99.90;;;;;;4168702;28;20302;-96
2022/05/16 06:20:46;;;;;;;3.53;1.20;;;21.50;99.90;;;;;;4181080;28;20215;-95
2022/05/16 06:22:46;;;;;;;8.18;1.70;;;21.70;99.90;;;;;;4197863;28;20293;-93
2022/05/16 06:27:15;;;;;;;4.80;1.13;;;22.00;99.90;;;;;;4196213;28;20182;-94
2022/05/16 06:29:16;;;;;;;8.50;1.77;;;22.10;99.90;;;;;;4196741;28;20174;-94
2022/05/16 06:31:17;;;;;;;10.68;1.80;;;22.00;99.90;;;;;;4194554;28;20180;-94
2022/05/16 06:33:31;;;;;;;3.60;1.45;;;21.90;99.90;;;;;;4197428;28;20164;-95
2022/05/16 06:35:34;;;;;;;7.40;1.30;;;22.00;99.90;;;;;;4194076;28;20159;-94
2022/05/16 06:37:35;;;;;;;8.25;1.33;;;21.80;99.90;;;;;;4193732;28;20167;-96
2022/05/16 06:39:35;;;;;;;8.23;1.30;;;21.70;99.90;;;;;;4177192;28;20211;-93
2022/05/16 06:41:37;;;;;;;3.03;1.05;;;21.60;99.90;;;;;;4180903;28;20200;-93
2022/05/16 06:43:38;;;;;;;4.22;1.40;;;21.80;99.90;;;;;;4196122;28;20202;-95
2022/05/16 06:45:43;;;;;;;12.25;1.55;;;21.90;99.90;;;;;;4179806;28;20161;-94
2022/05/16 06:48:13;;;;;;;8.48;1.48;;;22.20;99.90;;;;;;4198073;28;20183;-94
2022/05/16 06:50:21;;;;;;;10.70;1.30;;;22.70;99.90;;;;;;4213347;22;20225;-93
2022/05/16 06:52:24;;;;;;;2.88;1.30;;;23.00;99.90;;;;;;4191332;28;20176;-95
2022/05/16 06:54:25;;;;;;;3.88;1.63;;;23.30;99.90;;;;;;4192263;28;20202;-94
2022/05/16 06:56:26;;;;;;;4.68;1.63;;;23.10;99.90;;;;;;4187708;28;20176;-93
2022/05/16 06:58:28;;;;;;;6.30;1.50;;;22.90;99.90;;;;;;4205426;28;20236;-94
2022/05/16 07:00:29;;;;;;;7.30;1.40;;;22.80;99.90;;;;;;4204458;28;20218;-93
2022/05/16 07:02:30;;;;;;;5.32;1.35;;;22.90;99.90;;;;;;4187705;28;20219;-92
2022/05/16 07:04:34;;;;;;;7.40;1.65;;;22.90;99.90;;;;;;4191187;28;20230;-93
2022/05/16 07:06:36;;;;;;;5.57;1.77;;;22.80;99.90;;;;;;4208737;28;20170;-95
2022/05/16 07:08:40;;;;;;;7.35;1.77;;;22.90;99.90;;;;;;4194050;28;20152;-94
2022/05/16 07:11:02;;;;;;;5.47;1.98;;;23.50;99.90;;;;;;4211566;28;20175;-94
2022/05/16 07:13:08;;;;;;;8.15;1.85;;;24.90;99.90;;;;;;4214263;28;20159;-94
2022/05/16 07:15:09;;;;;;;4.55;1.88;;;26.70;99.90;;;;;;4218345;28;20170;-94
2022/05/16 07:17:13;;;;;;;3.40;1.67;;;27.50;99.90;;;;;;4197232;28;20217;-94
2022/05/16 07:19:14;;;;;;;3.90;1.35;;;28.10;99.90;;;;;;4196272;28;20959;-95
2022/05/16 07:21:21;;;;;;;2.50;1.63;;;29.00;99.90;;;;;;4216913;28;20171;-96
2022/05/16 07:23:22;;;;;;;5.72;1.90;;;30.00;99.90;;;;;;4214062;28;20273;-95
2022/05/16 07:25:29;;;;;;;5.95;1.73;;;30.30;99.90;;;;;;4196706;28;20572;-94
2022/05/16 07:29:48;;;;;;;11.50;1.90;;;30.90;99.90;;;;;;4211044;28;20199;-94
2022/05/16 07:31:51;;;;;;;8.57;2.10;;;30.60;99.90;;;;;;4193787;28;20231;-96
2022/05/16 07:33:51;;;;;;;3.63;1.95;;;29.50;99.90;;;;;;4192156;28;20167;-96
2022/05/16 07:35:55;;;;;;;4.63;1.85;;;29.10;99.90;;;;;;4190484;28;20750;-95
2022/05/16 07:38:03;;;;;;;4.68;1.38;;;28.30;99.90;;;;;;4195298;28;20191;-94
2022/05/16 07:40:07;;;;;;;6.30;2.67;;;27.30;99.90;;;;;;4214920;28;20198;-94
2022/05/16 07:42:11;;;;;;;8.50;1.90;;;27.60;99.90;;;;;;4216836;28;20199;-95
2022/05/16 07:44:12;;;;;;;7.97;1.92;;;28.20;99.90;;;;;;4204877;28;20159;-96
2022/05/16 07:46:13;;;;;;;9.07;2.33;;;29.20;99.90;;;;;;4191645;28;20171;-95
2022/05/16 07:48:15;;;;;;;7.90;1.98;;;30.00;99.90;;;;;;4206464;28;20270;-95
2022/05/16 07:50:16;;;;;;;6.22;1.67;;;30.00;99.90;;;;;;4207497;28;20203;-96
2022/05/16 07:52:17;;;;;;;3.85;1.85;;;30.10;99.90;;;;;;4193035;28;20168;-94
2022/05/16 07:54:21;;;;;;;6.88;2.20;;;29.80;99.90;;;;;;4192383;28;20735;-95
2022/05/16 07:56:23;;;;;;;7.20;2.20;;;29.30;99.90;;;;;;4190888;28;20163;-96
2022/05/16 07:58:25;;;;;;;6.95;2.58;;;28.40;99.90;;;;;;4205412;28;20171;-96
2022/05/16 08:00:26;;;;;;;7.28;2.13;;;27.50;99.90;;;;;;4205972;28;20189;-95
2022/05/16 08:02:27;;;;;;;5.53;2.30;;;27.10;99.90;;;;;;4204171;28;20297;-95
2022/05/16 08:04:27;;;;;;;4.90;2.35;;;26.80;99.90;;;;;;4190355;28;20197;-95
2022/05/16 08:06:28;;;;;;;6.28;2.35;;;26.70;99.90;;;;;;4204824;28;20194;-95
2022/05/16 08:10:49;;;;;;;6.53;2.53;;;26.30;99.90;;;;;;4204916;28;20193;-93
2022/05/16 08:13:06;;;;;;;7.50;2.30;;;26.10;99.90;;;;;;4203151;28;20225;-95
2022/05/16 08:15:07;;;;;;;5.97;2.35;;;25.90;99.90;;;;;;4170652;28;20640;-94
2022/05/16 08:17:08;;;;;;;5.50;2.53;;;26.20;99.90;;;;;;4169911;28;20553;-94
2022/05/16 08:19:09;;;;;;;7.47;2.38;;;25.90;99.90;;;;;;4167419;28;20191;-91
2022/05/16 08:21:12;;;;;;;7.32;2.47;;;25.40;99.90;;;;;;4153698;28;20630;-95
2022/05/16 08:23:19;;;;;;;7.60;2.65;;;25.30;99.90;;;;;;4156129;28;20240;-95
2022/05/16 08:25:20;;;;;;;7.03;2.50;;;25.40;99.90;;;;;;4172997;28;20169;-95
2022/05/16 08:27:20;;;;;;;8.70;2.78;;;25.30;99.90;;;;;;4157831;28;20687;-95
2022/05/16 08:29:21;;;;;;;8.48;3.08;;;25.40;99.90;;;;;;4171903;28;20219;-95
2022/05/16 08:31:28;;;;;;;12.05;3.13;;;25.10;99.90;;;;;;4155063;28;20165;-94
2022/05/16 08:33:29;;;;;;;8.73;3.30;;;24.80;99.90;;;;;;4170482;28;20653;-96
2022/05/16 08:35:30;;;;;;;9.30;3.05;;;24.60;99.90;;;;;;4155649;28;20173;-95
2022/05/16 08:39:55;;;;;;;7.05;2.85;;;24.20;99.90;;;;;;4174492;28;20207;-94
2022/05/16 08:42:04;;;;;;;8.00;3.33;;;24.50;99.90;;;;;;4173834;28;20214;-95
2022/05/16 08:44:29;;;;;;;5.18;3.17;;;24.80;99.90;;;;;;4172815;28;20204;-94
2022/05/16 08:46:48;;;;;;;7.38;2.80;;;25.00;99.90;;;;;;4172041;28;20202;-94
2022/05/16 08:48:58;;;;;;;5.75;3.03;;;24.70;99.90;;;;;;4175891;28;20223;-96
2022/05/16 08:51:18;;;;;;;12.98;3.03;;;24.70;99.90;;;;;;4156878;28;20176;-93
2022/05/16 08:53:29;;;;;;;8.32;3.03;;;24.60;99.90;;;;;;4176248;28;20175;-95
2022/05/16 08:55:47;;;;;;;7.57;3.20;;;24.30;99.90;;;;;;4173227;28;20168;-93
2022/05/16 08:57:59;;;;;;;8.90;4.10;;;24.30;99.90;;;;;;4175703;28;20156;-93
2022/05/16 09:00:14;;;;;;;7.07;3.33;;;24.20;99.90;;;;;;4170891;28;20199;-93
2022/05/16 09:02:26;;;;;;;11.00;3.47;;;24.20;99.90;;;;;;4178492;28;20219;-93
2022/05/16 09:04:55;;;;;;;6.57;3.30;;;24.30;99.90;;;;;;4178967;28;20176;-93
2022/05/16 09:07:31;;;;;;;9.50;3.33;;;24.60;99.90;;;;;;4187962;28;20175;-94
2022/05/16 09:10:07;;;;;;;9.70;3.20;;;24.20;99.90;;;;;;4169323;28;20269;-93
2022/05/16 09:12:17;;;;;;;10.00;3.00;;;23.80;99.90;;;;;;4147600;28;20227;-94
2022/05/16 09:14:38;;;;;;;8.60;3.30;;;23.70;99.90;;;;;;4169856;28;20191;-94
2022/05/16 09:16:48;;;;;;;10.60;3.65;;;23.40;99.90;;;;;;4173353;28;20172;-93
2022/05/16 09:19:04;;;;;;;10.43;3.67;;;23.20;99.90;;;;;;4173381;28;20190;-95
2022/05/16 09:21:14;;;;;;;10.80;3.92;;;23.20;99.90;;;;;;4172287;28;20234;-95
2022/05/16 09:23:48;;;;;;;11.27;4.22;;;23.30;99.90;;;;;;4175273;28;20255;-93
2022/05/16 09:26:25;;;;;;;12.05;4.13;;;23.40;99.90;;;;;;4171389;28;20168;-92
2022/05/16 09:28:35;;;;;;;13.15;4.53;;;23.50;99.90;;;;;;4168733;28;20176;-93
2022/05/16 09:31:02;;;;;;;8.77;4.57;;;23.50;99.90;;;;;;4171063;28;20183;-94
2022/05/16 09:33:11;;;;;;;13.45;4.32;;;23.50;99.90;;;;;;4170363;28;20237;-94
2022/05/16 09:35:28;;;;;;;9.52;4.18;;;23.10;99.90;;;;;;4187782;28;20249;-93
2022/05/16 09:37:29;;;;;;;11.75;4.10;;;23.10;99.90;;;;;;4175268;28;20263;-93
2022/05/16 09:39:35;;;;;;;7.70;3.80;;;23.10;99.90;;;;;;4178411;28;20175;-94
2022/05/16 09:42:03;;;;;;;8.05;4.30;;;23.10;99.90;;;;;;4194101;28;20190;-96
2022/05/16 09:44:28;;;;;;;10.73;3.88;;;23.00;99.90;;;;;;4180147;28;20243;-93
2022/05/16 09:46:42;;;;;;;14.52;4.30;;;23.10;99.90;;;;;;4176535;28;20199;-93
2022/05/16 09:48:43;;;;;;;10.35;4.22;;;23.40;99.90;;;;;;4180741;28;20187;-94
2022/05/16 09:50:56;;;;;;;12.00;4.20;;;23.60;99.90;;;;;;4176066;28;20168;-95
2022/05/16 09:53:20;;;;;;;9.07;4.00;;;23.80;99.90;;;;;;4164631;28;20277;-93
2022/05/16 09:55:47;;;;;;;8.93;4.55;;;23.60;99.90;;;;;;4177856;28;20191;-92
2022/05/16 09:57:54;;;;;;;7.20;4.00;;;23.70;99.90;;;;;;4178749;28;20152;-93
2022/05/16 10:00:00;;;;;;;11.70;4.20;;;23.80;99.90;;;;;;4176888;28;20184;-93
2022/05/16 10:02:14;;;;;;;7.18;3.60;;;24.00;99.90;;;;;;4176623;28;20188;-94
2022/05/16 10:04:38;;;;;;;9.32;3.40;;;24.20;99.90;;;;;;4180540;28;20184;-92
2022/05/16 10:07:02;;;;;;;9.05;4.13;;;24.70;99.90;;;;;;4179707;28;20199;-94
2022/05/16 10:09:14;;;;;;;5.30;3.72;;;25.10;99.90;;;;;;4185005;28;20191;-94
2022/05/16 10:11:26;;;;;;;7.90;3.58;;;25.50;99.90;;;;;;4164397;28;20177;-94
2022/05/16 10:13:28;;;;;;;7.03;3.40;;;25.60;99.90;;;;;;4179086;28;20174;-93
2022/05/16 10:15:31;;;;;;;8.23;3.40;;;25.90;99.90;;;;;;4178894;28;20160;-95
2022/05/16 10:17:42;;;;;;;10.05;4.00;;;25.80;99.90;;;;;;4194226;28;20183;-94
2022/05/16 10:20:17;;;;;;;7.95;3.78;;;25.60;99.90;;;;;;4192168;28;20188;-95
2022/05/16 10:22:22;;;;;;;9.27;3.70;;;25.50;99.90;;;;;;4181507;28;20204;-94
2022/05/16 10:24:54;;;;;;;8.38;3.50;;;25.50;99.90;;;;;;4196322;28;20165;-92
2022/05/16 10:26:59;;;;;;;10.23;3.17;;;25.60;99.90;;;;;;4177990;28;20204;-96
2022/05/16 10:29:12;;;;;;;6.68;3.28;;;25.50;99.90;;;;;;4180972;28;20188;-92
2022/05/16 10:34:44;;;;;;;7.90;3.40;;;25.60;99.90;;;;;;4197687;28;20259;-94
2022/05/16 10:36:50;;;;;;;7.25;2.88;;;25.00;99.90;;;;;;4179865;28;20216;-92
2022/05/16 10:39:06;;;;;;;9.30;2.92;;;24.90;99.90;;;;;;4181105;28;20198;-92
2022/05/16 10:41:26;;;;;;;10.35;2.88;;;24.90;99.90;;;;;;4166055;28;20149;-92
2022/05/16 10:44:08;;;;;;;5.20;2.75;;;24.90;99.90;;;;;;4181248;28;20168;-92
2022/05/16 10:46:33;;;;;;;8.88;2.47;;;24.80;99.90;;;;;;4198810;28;20175;-95
2022/05/16 10:49:04;;;;;;;8.15;2.50;;;24.80;99.90;;;;;;4183913;28;20168;-93
2022/05/16 10:51:27;;;;;;;8.52;2.45;;;25.10;99.90;;;;;;4183445;28;20180;-94
2022/05/16 10:53:37;;;;;;;7.90;2.67;;;25.30;99.90;;;;;;4181627;28;20205;-92
2022/05/16 10:55:46;;;;;;;9.60;2.53;;;24.90;99.90;;;;;;4182984;28;20164;-94
2022/05/16 10:57:59;;;;;;;8.18;2.72;;;24.60;99.90;;;;;;4201596;28;20222;-94
2022/05/16 11:00:19;;;;;;;9.52;2.55;;;24.70;99.90;;;;;;4183323;28;20208;-92
2022/05/16 11:02:51;;;;;;;6.13;2.42;;;24.80;99.90;;;;;;4184470;28;20259;-94
2022/05/16 11:05:38;;;;;;;12.80;2.67;;;24.80;99.90;;;;;;4201268;28;20171;-94
2022/05/16 11:07:59;;;;;;;8.75;2.30;;;25.10;99.90;;;;;;4183855;28;20188;-92
2022/05/16 11:10:52;;;;;;;10.50;2.72;;;25.90;99.90;;;;;;4185347;28;20177;-95
2022/05/16 11:13:35;;;;;;;7.28;2.88;;;26.10;99.90;;;;;;4183059;28;20198;-92
2022/05/16 11:15:57;;;;;;;8.90;2.58;;;26.30;99.90;;;;;;4182963;28;20191;-94
2022/05/16 11:18:48;;;;;;;9.77;2.53;;;26.00;99.90;;;;;;4164319;28;20208;-94
2022/05/16 11:21:01;;;;;;;5.32;2.17;;;25.70;99.90;;;;;;4168039;28;20204;-92
2022/05/16 11:23:28;;;;;;;8.07;2.40;;;25.80;99.90;;;;;;4184273;28;20196;-92
2022/05/16 11:26:04;;;;;;;10.75;2.45;;;26.00;99.90;;;;;;4183278;28;20164;-94
2022/05/16 11:31:44;;;;;;;5.43;2.28;;;25.70;99.90;;;;;;4201506;28;20179;-93
2022/05/16 11:34:29;;;;;;;11.75;2.70;;;25.60;99.90;;;;;;4183305;28;20188;-92